Time;durP1;ratioP1;P1;durP2;ratioP2;P2;SDS_P1;SDS_P2;PMS_P1;PMS_P2;Temp;Humidity;BMP_temperature;BMP_pressure;BME280_temperature;BME280_humidity;BME280_pressure;Samples;Min_cycle;Max_cycle;Signal;HPM_P1;HPM_P2
2021/08/02 00:00:10;;;;;;;3.10;1.60;;;;;;;;;;4932797;28;20193;-82
2021/08/02 00:02:48;;;;;;;2.58;1.38;;;;;;;;;;4933662;29;20511;-80
2021/08/02 00:05:14;;;;;;;3.05;1.50;;;;;;;;;;4934589;29;20484;-78
2021/08/02 00:07:42;;;;;;;3.13;1.42;;;;;;;;;;4934189;29;20561;-76
2021/08/02 00:10:12;;;;;;;2.47;1.30;;;;;;;;;;4934187;29;20027;-76
2021/08/02 00:12:45;;;;;;;3.55;1.55;;;;;;;;;;4933480;29;20110;-76
2021/08/02 00:15:12;;;;;;;3.08;1.98;;;;;;;;;;4934335;29;20081;-77
2021/08/02 00:17:39;;;;;;;3.00;1.60;;;;;;;;;;4932341;29;20059;-76
2021/08/02 00:20:05;;;;;;;2.63;1.40;;;;;;;;;;4933814;29;20192;-77
2021/08/02 00:22:31;;;;;;;1.98;1.42;;;;;;;;;;4933851;29;20067;-76
2021/08/02 00:24:57;;;;;;;3.47;1.73;;;;;;;;;;4933946;28;20024;-76
2021/08/02 00:27:23;;;;;;;3.13;1.67;;;;;;;;;;4933570;29;20055;-75
2021/08/02 00:29:49;;;;;;;2.53;1.52;;;;;;;;;;4933781;29;20103;-75
2021/08/02 00:32:16;;;;;;;2.20;1.55;;;;;;;;;;4933445;29;20119;-75
2021/08/02 00:34:42;;;;;;;2.95;1.45;;;;;;;;;;4933855;29;20020;-75
2021/08/02 00:37:13;;;;;;;3.05;1.98;;;;;;;;;;4933772;29;20042;-79
2021/08/02 00:39:39;;;;;;;3.22;1.80;;;;;;;;;;4933514;29;20034;-81
2021/08/02 00:42:20;;;;;;;2.47;1.42;;;;;;;;;;4933612;29;20115;-76
2021/08/02 00:45:02;;;;;;;2.30;1.55;;;;;;;;;;4933774;29;20031;-75
2021/08/02 00:47:33;;;;;;;2.15;1.45;;;;;;;;;;4933452;29;20411;-75
2021/08/02 00:50:19;;;;;;;1.83;1.38;;;;;;;;;;4933339;29;20031;-76
2021/08/02 00:52:58;;;;;;;3.55;1.40;;;;;;;;;;4932016;29;20036;-75
2021/08/02 00:55:27;;;;;;;3.13;1.92;;;;;;;;;;4933321;29;20038;-76
2021/08/02 00:57:55;;;;;;;3.13;1.58;;;;;;;;;;4933545;28;20054;-78
2021/08/02 01:00:21;;;;;;;4.05;1.60;;;;;;;;;;4933191;29;20148;-80
2021/08/02 01:02:53;;;;;;;2.53;1.63;;;;;;;;;;4933358;29;20062;-81
2021/08/02 01:05:19;;;;;;;3.33;1.60;;;;;;;;;;4933246;29;20032;-81
2021/08/02 01:08:05;;;;;;;2.30;1.58;;;;;;;;;;4932986;28;20103;-82
2021/08/02 01:10:35;;;;;;;5.05;1.90;;;;;;;;;;4933205;29;20036;-85
2021/08/02 01:13:06;;;;;;;3.67;2.40;;;;;;;;;;4933403;28;20035;-80
2021/08/02 01:15:32;;;;;;;3.40;1.50;;;;;;;;;;4933107;29;20027;-80
2021/08/02 01:18:00;;;;;;;3.80;1.48;;;;;;;;;;4932979;28;20059;-79
2021/08/02 01:20:28;;;;;;;2.65;1.50;;;;;;;;;;4932622;29;20032;-79
2021/08/02 01:22:55;;;;;;;4.10;2.10;;;;;;;;;;4933142;29;20059;-80
2021/08/02 01:25:34;;;;;;;2.05;1.23;;;;;;;;;;4931472;29;20024;-78
2021/08/02 01:28:15;;;;;;;2.03;1.40;;;;;;;;;;4933080;29;20048;-78
2021/08/02 01:30:41;;;;;;;2.63;1.45;;;;;;;;;;4931862;28;20050;-80
2021/08/02 01:33:07;;;;;;;3.13;1.88;;;;;;;;;;4932678;28;20400;-82
2021/08/02 01:35:34;;;;;;;3.65;1.75;;;;;;;;;;4932690;29;20036;-78
2021/08/02 01:38:00;;;;;;;2.45;1.52;;;;;;;;;;4931688;28;20082;-83
2021/08/02 01:40:30;;;;;;;2.85;1.63;;;;;;;;;;4932352;28;20081;-78
2021/08/02 01:43:04;;;;;;;2.75;1.75;;;;;;;;;;4932892;28;20092;-79
2021/08/02 01:45:33;;;;;;;2.08;1.30;;;;;;;;;;4932352;29;20107;-80
2021/08/02 01:48:12;;;;;;;3.28;1.73;;;;;;;;;;4932603;28;20032;-82
2021/08/02 01:50:46;;;;;;;2.42;1.58;;;;;;;;;;4932548;29;20522;-84
2021/08/02 01:53:29;;;;;;;2.47;1.60;;;;;;;;;;4932847;29;20031;-77
2021/08/02 01:56:04;;;;;;;2.78;1.67;;;;;;;;;;4932012;29;20423;-82
2021/08/02 01:58:32;;;;;;;2.40;1.63;;;;;;;;;;4932320;29;20081;-83
2021/08/02 02:00:58;;;;;;;2.45;1.85;;;;;;;;;;4932527;29;20130;-81
2021/08/02 02:03:26;;;;;;;2.65;1.50;;;;;;;;;;4932080;28;20077;-77
2021/08/02 02:05:56;;;;;;;3.35;1.75;;;;;;;;;;4931614;29;20584;-79
2021/08/02 02:08:24;;;;;;;3.88;1.42;;;;;;;;;;4932003;29;20027;-79
2021/08/02 02:10:55;;;;;;;3.30;1.80;;;;;;;;;;4932460;28;20430;-80
2021/08/02 02:13:23;;;;;;;2.30;1.50;;;;;;;;;;4932146;29;20102;-79
2021/08/02 02:15:52;;;;;;;2.78;1.40;;;;;;;;;;4932170;29;20502;-84
2021/08/02 02:18:19;;;;;;;2.30;1.75;;;;;;;;;;4931176;29;20095;-83
2021/08/02 02:20:46;;;;;;;1.67;1.23;;;;;;;;;;4932560;28;20063;-83
2021/08/02 02:23:13;;;;;;;2.35;1.50;;;;;;;;;;4932649;29;20553;-81
2021/08/02 02:25:41;;;;;;;2.72;1.73;;;;;;;;;;4930677;29;20043;-82
2021/08/02 02:28:07;;;;;;;3.85;1.52;;;;;;;;;;4931988;29;20024;-83
2021/08/02 02:30:33;;;;;;;4.40;1.80;;;;;;;;;;4931944;28;20383;-80
2021/08/02 02:32:59;;;;;;;2.55;1.55;;;;;;;;;;4932029;29;20027;-79
2021/08/02 02:35:26;;;;;;;3.20;1.50;;;;;;;;;;4931952;29;20036;-82
2021/08/02 02:37:53;;;;;;;2.75;1.88;;;;;;;;;;4930726;28;20027;-87
2021/08/02 02:40:19;;;;;;;2.03;1.45;;;;;;;;;;4931548;29;20063;-79
2021/08/02 02:42:46;;;;;;;3.40;1.65;;;;;;;;;;4932013;29;20038;-77
2021/08/02 02:45:12;;;;;;;3.50;1.63;;;;;;;;;;4932055;29;20032;-79
2021/08/02 02:47:38;;;;;;;3.20;1.75;;;;;;;;;;4931630;29;20368;-82
2021/08/02 02:50:05;;;;;;;3.13;1.52;;;;;;;;;;4930148;29;20036;-80
2021/08/02 02:52:32;;;;;;;2.25;1.65;;;;;;;;;;4931678;28;20518;-81
2021/08/02 02:54:59;;;;;;;2.58;1.67;;;;;;;;;;4931179;29;20043;-84
2021/08/02 02:57:25;;;;;;;3.70;1.92;;;;;;;;;;4931498;28;20027;-82
2021/08/02 02:59:51;;;;;;;3.00;1.30;;;;;;;;;;4930396;28;20392;-82
2021/08/02 03:02:20;;;;;;;2.22;1.50;;;;;;;;;;4931186;29;20032;-79
2021/08/02 03:04:48;;;;;;;3.05;1.75;;;;;;;;;;4931095;29;20034;-79
2021/08/02 03:07:15;;;;;;;3.40;1.88;;;;;;;;;;4931547;29;20027;-81
2021/08/02 03:09:42;;;;;;;3.05;1.60;;;;;;;;;;4931711;29;20483;-83
2021/08/02 03:12:08;;;;;;;4.13;1.70;;;;;;;;;;4931448;29;20059;-85
2021/08/02 03:14:35;;;;;;;3.00;1.67;;;;;;;;;;4931157;29;20103;-81
2021/08/02 03:17:02;;;;;;;3.30;1.70;;;;;;;;;;4931258;29;20030;-83
2021/08/02 03:19:28;;;;;;;5.38;1.75;;;;;;;;;;4931136;28;20054;-82
2021/08/02 03:21:54;;;;;;;2.65;1.67;;;;;;;;;;4931272;28;20149;-83
2021/08/02 03:24:34;;;;;;;2.53;1.65;;;;;;;;;;4931092;29;20492;-80
2021/08/02 03:27:03;;;;;;;2.00;1.30;;;;;;;;;;4931556;29;20028;-81
2021/08/02 03:29:38;;;;;;;3.15;1.77;;;;;;;;;;4931187;29;20107;-79
2021/08/02 03:32:09;;;;;;;2.90;1.73;;;;;;;;;;4931441;28;20028;-78
2021/08/02 03:34:36;;;;;;;4.20;1.80;;;;;;;;;;4930804;29;20683;-79
2021/08/02 03:37:05;;;;;;;2.42;1.90;;;;;;;;;;4929912;29;20031;-80
2021/08/02 03:39:32;;;;;;;3.25;1.80;;;;;;;;;;4930865;29;20032;-79
2021/08/02 03:41:59;;;;;;;3.35;1.95;;;;;;;;;;4929956;29;20046;-81
2021/08/02 03:44:25;;;;;;;3.25;1.92;;;;;;;;;;4930633;29;20492;-79
2021/08/02 03:46:52;;;;;;;3.40;1.90;;;;;;;;;;4931120;29;20495;-80
2021/08/02 03:49:18;;;;;;;2.63;1.50;;;;;;;;;;4930768;28;20035;-85
2021/08/02 03:51:46;;;;;;;3.75;1.83;;;;;;;;;;4931449;29;20024;-82
2021/08/02 03:54:12;;;;;;;3.95;2.38;;;;;;;;;;4930935;28;20526;-85
2021/08/02 03:56:39;;;;;;;4.30;1.88;;;;;;;;;;4930790;29;20024;-83
2021/08/02 03:59:05;;;;;;;3.25;1.88;;;;;;;;;;4930517;29;20047;-76
2021/08/02 04:01:38;;;;;;;3.53;1.58;;;;;;;;;;4930732;28;20111;-79
2021/08/02 04:04:04;;;;;;;3.25;1.83;;;;;;;;;;4930665;28;20102;-81
2021/08/02 04:06:30;;;;;;;2.85;1.73;;;;;;;;;;4930497;28;20507;-85
2021/08/02 04:08:56;;;;;;;3.15;2.10;;;;;;;;;;4930986;28;20028;-85
2021/08/02 04:11:22;;;;;;;2.45;1.92;;;;;;;;;;4930660;29;20106;-79
2021/08/02 04:13:48;;;;;;;3.53;1.90;;;;;;;;;;4931019;29;20110;-80
2021/08/02 04:16:14;;;;;;;2.58;1.92;;;;;;;;;;4931001;29;20381;-81
2021/08/02 04:18:40;;;;;;;3.40;2.50;;;;;;;;;;4929462;28;20028;-80
2021/08/02 04:21:06;;;;;;;2.72;1.88;;;;;;;;;;4930841;29;20119;-83
2021/08/02 04:23:32;;;;;;;2.50;1.88;;;;;;;;;;4930179;29;20024;-83
2021/08/02 04:25:58;;;;;;;3.30;1.90;;;;;;;;;;4930448;29;20078;-82
2021/08/02 04:28:24;;;;;;;3.28;1.80;;;;;;;;;;4930902;29;20032;-81
2021/08/02 04:30:50;;;;;;;3.33;1.90;;;;;;;;;;4933916;29;20042;-80
2021/08/02 04:33:17;;;;;;;2.92;1.92;;;;;;;;;;4933693;28;20027;-79
2021/08/02 04:35:44;;;;;;;3.63;2.00;;;;;;;;;;4933967;28;20038;-81
2021/08/02 04:38:10;;;;;;;5.22;2.10;;;;;;;;;;4933796;29;20119;-76
2021/08/02 04:40:36;;;;;;;3.88;1.83;;;;;;;;;;4933169;28;20503;-84
2021/08/02 04:43:02;;;;;;;3.70;2.00;;;;;;;;;;4933704;29;20499;-84
2021/08/02 04:45:28;;;;;;;2.72;1.83;;;;;;;;;;4933420;29;20059;-85
2021/08/02 04:47:54;;;;;;;3.85;2.17;;;;;;;;;;4933593;29;20028;-84
2021/08/02 04:50:20;;;;;;;2.65;1.90;;;;;;;;;;4933444;29;20028;-81
2021/08/02 04:52:47;;;;;;;3.08;1.75;;;;;;;;;;4933477;29;20085;-82
2021/08/02 04:55:14;;;;;;;4.43;1.88;;;;;;;;;;4928886;29;20067;-81
2021/08/02 04:57:40;;;;;;;3.45;1.90;;;;;;;;;;4921953;28;20572;-85
2021/08/02 05:00:07;;;;;;;3.88;2.08;;;;;;;;;;4933081;29;20400;-83
2021/08/02 05:02:33;;;;;;;3.63;1.95;;;;;;;;;;4932942;29;20040;-86
2021/08/02 05:04:59;;;;;;;2.47;2.03;;;;;;;;;;4932084;29;20031;-83
2021/08/02 05:07:25;;;;;;;2.95;1.85;;;;;;;;;;4932916;29;20035;-82
2021/08/02 05:09:51;;;;;;;2.92;1.90;;;;;;;;;;4933280;29;20027;-83
2021/08/02 05:12:17;;;;;;;3.45;1.92;;;;;;;;;;4933000;28;20070;-80
2021/08/02 05:14:43;;;;;;;5.05;1.75;;;;;;;;;;4933483;28;20504;-85
2021/08/02 05:17:09;;;;;;;2.58;1.77;;;;;;;;;;4933342;29;20023;-79
2021/08/02 05:19:36;;;;;;;3.40;1.98;;;;;;;;;;4932700;29;20545;-81
2021/08/02 05:22:02;;;;;;;3.63;1.83;;;;;;;;;;4933114;29;20131;-82
2021/08/02 05:24:28;;;;;;;2.85;1.75;;;;;;;;;;4932479;29;20038;-86
2021/08/02 05:26:54;;;;;;;3.20;1.73;;;;;;;;;;4933128;29;20032;-82
2021/08/02 05:29:20;;;;;;;2.70;1.70;;;;;;;;;;4932706;29;20438;-84
2021/08/02 05:31:46;;;;;;;2.75;1.42;;;;;;;;;;4933167;29;20070;-82
2021/08/02 05:34:12;;;;;;;3.10;1.65;;;;;;;;;;4931899;29;20027;-80
2021/08/02 05:36:38;;;;;;;5.75;2.42;;;;;;;;;;4932447;29;20035;-77
2021/08/02 05:39:05;;;;;;;3.63;1.70;;;;;;;;;;4930334;28;20031;-79
2021/08/02 05:41:31;;;;;;;5.43;1.60;;;;;;;;;;4932521;28;20166;-83
2021/08/02 05:43:57;;;;;;;2.85;1.50;;;;;;;;;;4932838;29;20110;-85
2021/08/02 05:46:23;;;;;;;3.00;1.45;;;;;;;;;;4932627;29;20028;-84
2021/08/02 05:48:49;;;;;;;2.25;1.58;;;;;;;;;;4932793;28;20031;-81
2021/08/02 05:51:15;;;;;;;3.90;1.77;;;;;;;;;;4933080;29;20081;-75
2021/08/02 05:53:41;;;;;;;4.15;1.73;;;;;;;;;;4932716;29;20035;-85
2021/08/02 05:56:07;;;;;;;4.35;1.85;;;;;;;;;;4931307;28;20035;-82
2021/08/02 05:58:33;;;;;;;2.83;1.60;;;;;;;;;;4932375;29;20042;-84
2021/08/02 06:00:59;;;;;;;1.73;1.35;;;;;;;;;;4932524;28;20364;-84
2021/08/02 06:03:26;;;;;;;3.20;1.52;;;;;;;;;;4932362;29;20060;-82
2021/08/02 06:05:52;;;;;;;2.38;1.38;;;;;;;;;;4932198;29;20019;-83
2021/08/02 06:08:18;;;;;;;3.70;1.75;;;;;;;;;;4932279;29;20039;-85
2021/08/02 06:10:44;;;;;;;2.85;1.50;;;;;;;;;;4932738;29;20059;-83
2021/08/02 06:13:10;;;;;;;3.65;1.60;;;;;;;;;;4932567;29;20032;-87
2021/08/02 06:15:36;;;;;;;3.17;1.23;;;;;;;;;;4932006;28;20027;-87
2021/08/02 06:18:02;;;;;;;1.98;1.38;;;;;;;;;;4932421;29;20059;-85
2021/08/02 06:20:28;;;;;;;2.70;1.42;;;;;;;;;;4931581;29;20036;-84
2021/08/02 06:22:54;;;;;;;2.38;1.30;;;;;;;;;;4930730;29;20032;-81
2021/08/02 06:25:20;;;;;;;2.40;1.40;;;;;;;;;;5012100;28;20095;-76
2021/08/02 06:27:46;;;;;;;3.67;1.50;;;;;;;;;;5011109;28;20536;-85
2021/08/02 06:30:12;;;;;;;3.30;1.30;;;;;;;;;;5012571;28;20044;-84
2021/08/02 06:32:38;;;;;;;2.95;1.70;;;;;;;;;;5012261;28;20457;-78
2021/08/02 06:35:04;;;;;;;2.33;1.38;;;;;;;;;;5012347;28;20053;-82
2021/08/02 06:37:30;;;;;;;2.15;1.13;;;;;;;;;;4977877;28;20055;-83
2021/08/02 06:39:56;;;;;;;1.95;1.00;;;;;;;;;;4931927;28;20051;-83
2021/08/02 06:42:22;;;;;;;2.78;1.60;;;;;;;;;;4931661;28;20036;-81
2021/08/02 06:44:48;;;;;;;2.70;1.52;;;;;;;;;;4931985;29;20069;-84
2021/08/02 06:47:14;;;;;;;2.22;1.27;;;;;;;;;;4932373;28;20530;-81
2021/08/02 06:49:40;;;;;;;2.72;1.27;;;;;;;;;;4931497;28;20028;-80
2021/08/02 06:52:06;;;;;;;2.50;1.50;;;;;;;;;;4931545;29;20039;-77
2021/08/02 06:54:33;;;;;;;1.50;1.05;;;;;;;;;;4929783;29;20032;-79
2021/08/02 06:56:59;;;;;;;3.78;1.30;;;;;;;;;;4931761;28;20488;-79
2021/08/02 06:59:24;;;;;;;3.03;1.20;;;;;;;;;;4931634;29;20030;-84
2021/08/02 07:01:50;;;;;;;2.08;1.10;;;;;;;;;;4931512;29;20052;-77
2021/08/02 07:04:17;;;;;;;2.22;1.48;;;;;;;;;;4931181;29;20028;-86
2021/08/02 07:06:44;;;;;;;2.28;1.40;;;;;;;;;;4931109;29;20082;-82
2021/08/02 07:09:10;;;;;;;3.47;1.55;;;;;;;;;;4930984;28;20066;-82
2021/08/02 07:11:36;;;;;;;4.15;1.20;;;;;;;;;;4931247;28;20403;-83
2021/08/02 07:14:03;;;;;;;2.55;1.40;;;;;;;;;;4931365;29;20051;-83
2021/08/02 07:16:29;;;;;;;2.15;1.20;;;;;;;;;;4931115;29;20028;-85
2021/08/02 07:18:55;;;;;;;2.13;1.00;;;;;;;;;;4931303;29;20059;-83
2021/08/02 07:21:22;;;;;;;2.08;1.35;;;;;;;;;;4931108;28;20089;-82
2021/08/02 07:23:48;;;;;;;1.63;0.90;;;;;;;;;;4931082;28;20024;-80
2021/08/02 07:26:14;;;;;;;2.20;1.20;;;;;;;;;;4931478;29;20036;-78
2021/08/02 07:28:40;;;;;;;3.72;1.65;;;;;;;;;;4931603;29;20047;-81
2021/08/02 07:31:07;;;;;;;1.63;0.80;;;;;;;;;;4929937;29;20480;-82
2021/08/02 07:33:33;;;;;;;1.85;1.15;;;;;;;;;;4929871;29;20035;-81
2021/08/02 07:35:59;;;;;;;3.20;1.13;;;;;;;;;;4931255;29;20053;-84
2021/08/02 07:38:25;;;;;;;1.73;1.02;;;;;;;;;;4930397;29;20024;-76
2021/08/02 07:40:51;;;;;;;92.80;62.40;;;;;;;;;;4931018;29;20111;-81
2021/08/02 07:43:18;;;;;;;38.83;26.75;;;;;;;;;;4929636;29;20024;-79
2021/08/02 07:45:44;;;;;;;68.40;45.03;;;;;;;;;;4930665;29;20377;-81
2021/08/02 07:48:09;;;;;;;41.65;28.77;;;;;;;;;;4929981;28;20507;-85
2021/08/02 07:50:36;;;;;;;59.40;36.97;;;;;;;;;;4931187;28;20032;-86
2021/08/02 07:53:02;;;;;;;95.38;62.78;;;;;;;;;;4930778;28;20039;-81
2021/08/02 07:55:28;;;;;;;38.05;26.02;;;;;;;;;;4930540;28;20058;-81
2021/08/02 07:57:54;;;;;;;39.60;28.35;;;;;;;;;;4930513;29;20063;-78
2021/08/02 08:00:20;;;;;;;54.28;32.65;;;;;;;;;;4930456;29;20028;-82
2021/08/02 08:02:46;;;;;;;39.28;28.13;;;;;;;;;;4930559;29;20090;-86
2021/08/02 08:05:13;;;;;;;33.58;23.30;;;;;;;;;;4934621;29;20028;-82
2021/08/02 08:07:45;;;;;;;36.67;23.83;;;;;;;;;;4934135;28;20028;-86
2021/08/02 08:10:12;;;;;;;32.78;23.45;;;;;;;;;;4934515;28;20028;-84
2021/08/02 08:12:38;;;;;;;35.40;22.05;;;;;;;;;;4934111;29;20039;-80
2021/08/02 08:15:04;;;;;;;28.40;18.73;;;;;;;;;;4932215;28;20051;-81
2021/08/02 08:17:30;;;;;;;31.88;21.52;;;;;;;;;;4934016;29;20109;-80
2021/08/02 08:19:56;;;;;;;25.70;17.80;;;;;;;;;;4933715;28;20091;-82
2021/08/02 08:22:22;;;;;;;29.83;21.35;;;;;;;;;;4929550;29;20040;-85
2021/08/02 08:24:49;;;;;;;31.15;20.85;;;;;;;;;;4914933;28;20025;-80
2021/08/02 08:27:16;;;;;;;24.90;16.10;;;;;;;;;;4914837;28;20044;-82
2021/08/02 08:29:42;;;;;;;24.75;15.98;;;;;;;;;;4914948;28;20026;-77
2021/08/02 08:32:08;;;;;;;26.95;17.73;;;;;;;;;;4915181;28;20492;-78
2021/08/02 08:34:34;;;;;;;25.92;16.98;;;;;;;;;;4914645;28;20524;-76
2021/08/02 08:37:00;;;;;;;20.67;13.55;;;;;;;;;;4922272;29;20103;-80
2021/08/02 08:39:26;;;;;;;19.70;13.73;;;;;;;;;;4933480;28;20111;-79
2021/08/02 08:41:52;;;;;;;21.73;15.85;;;;;;;;;;4933056;29;20127;-75
2021/08/02 08:44:20;;;;;;;24.27;16.58;;;;;;;;;;4932937;28;20081;-81
2021/08/02 08:46:46;;;;;;;19.45;12.68;;;;;;;;;;4931687;29;20065;-83
2021/08/02 08:49:12;;;;;;;18.17;11.60;;;;;;;;;;4933515;28;20031;-84
2021/08/02 08:51:42;;;;;;;16.55;9.88;;;;;;;;;;4932144;28;20476;-86
2021/08/02 08:54:08;;;;;;;14.77;8.88;;;;;;;;;;4933124;29;20053;-84
2021/08/02 08:56:34;;;;;;;15.18;9.43;;;;;;;;;;4931909;29;20103;-84
2021/08/02 08:59:00;;;;;;;17.85;9.15;;;;;;;;;;4914551;29;20028;-79
2021/08/02 09:01:27;;;;;;;22.08;10.45;;;;;;;;;;4914228;28;20051;-81
2021/08/02 09:03:54;;;;;;;14.95;7.90;;;;;;;;;;4914316;29;20106;-77
2021/08/02 09:06:20;;;;;;;13.60;7.82;;;;;;;;;;4912852;28;20055;-80
2021/08/02 09:08:46;;;;;;;15.93;8.07;;;;;;;;;;4914157;29;20405;-78
2021/08/02 09:11:20;;;;;;;14.70;7.78;;;;;;;;;;4914564;29;20050;-79
2021/08/02 09:13:47;;;;;;;11.98;5.65;;;;;;;;;;4914052;28;20131;-76
2021/08/02 09:16:25;;;;;;;9.25;6.15;;;;;;;;;;4914434;29;20468;-80
2021/08/02 09:18:58;;;;;;;12.20;6.85;;;;;;;;;;4920392;28;20393;-74
2021/08/02 09:21:24;;;;;;;12.75;6.63;;;;;;;;;;4931703;29;20400;-78
2021/08/02 09:23:51;;;;;;;10.65;5.15;;;;;;;;;;4932933;28;20028;-78
2021/08/02 09:26:27;;;;;;;11.50;5.35;;;;;;;;;;4932766;29;20031;-77
2021/08/02 09:28:54;;;;;;;12.82;5.70;;;;;;;;;;4932975;29;20049;-78
2021/08/02 09:31:20;;;;;;;7.88;4.90;;;;;;;;;;4932863;29;20032;-77
2021/08/02 09:33:47;;;;;;;7.90;4.55;;;;;;;;;;4932881;28;20031;-80
2021/08/02 09:36:14;;;;;;;8.65;4.53;;;;;;;;;;4932666;29;20137;-80
2021/08/02 09:38:40;;;;;;;9.07;4.18;;;;;;;;;;4932769;29;20058;-76
2021/08/02 09:41:06;;;;;;;8.63;3.72;;;;;;;;;;4932595;28;20055;-80
2021/08/02 09:43:35;;;;;;;7.75;3.90;;;;;;;;;;4932174;29;20039;-80
2021/08/02 09:46:03;;;;;;;8.60;3.70;;;;;;;;;;4932881;28;20083;-78
2021/08/02 09:48:35;;;;;;;8.90;4.50;;;;;;;;;;4932282;28;20118;-76
2021/08/02 09:51:07;;;;;;;7.53;4.22;;;;;;;;;;4932656;29;20028;-77
2021/08/02 09:53:42;;;;;;;11.85;3.83;;;;;;;;;;4931999;29;20039;-78
2021/08/02 09:56:12;;;;;;;6.95;3.53;;;;;;;;;;4932509;29;20539;-78
2021/08/02 09:58:39;;;;;;;7.00;3.53;;;;;;;;;;4932343;28;20035;-77
2021/08/02 10:01:05;;;;;;;5.50;3.00;;;;;;;;;;4932575;28;20047;-78
2021/08/02 10:03:32;;;;;;;8.48;2.47;;;;;;;;;;4930315;29;20030;-75
2021/08/02 10:05:58;;;;;;;5.97;3.00;;;;;;;;;;4932479;29;20044;-77
2021/08/02 10:08:24;;;;;;;10.77;2.78;;;;;;;;;;4931996;28;20142;-75
2021/08/02 10:10:50;;;;;;;8.10;2.78;;;;;;;;;;4930787;28;20036;-75
2021/08/02 10:13:27;;;;;;;16.50;2.90;;;;;;;;;;4931634;28;20039;-77
2021/08/02 10:16:04;;;;;;;4.30;2.20;;;;;;;;;;4931775;29;20036;-78
2021/08/02 10:18:31;;;;;;;6.20;2.30;;;;;;;;;;4932190;29;20093;-77
2021/08/02 10:21:06;;;;;;;7.50;1.95;;;;;;;;;;4932223;29;20118;-81
2021/08/02 10:23:32;;;;;;;4.72;1.98;;;;;;;;;;4931598;29;20086;-81
2021/08/02 10:25:58;;;;;;;9.68;1.88;;;;;;;;;;4931492;29;20052;-77
2021/08/02 10:28:25;;;;;;;5.85;1.70;;;;;;;;;;4931995;29;20032;-78
2021/08/02 10:31:04;;;;;;;5.47;2.53;;;;;;;;;;4932223;29;20546;-81
2021/08/02 10:33:33;;;;;;;3.97;1.52;;;;;;;;;;4931764;29;20036;-82
2021/08/02 10:36:10;;;;;;;5.30;1.52;;;;;;;;;;4930450;29;20024;-75
2021/08/02 10:38:39;;;;;;;4.90;2.13;;;;;;;;;;4931907;29;20062;-77
2021/08/02 10:41:05;;;;;;;5.85;1.10;;;;;;;;;;4931216;29;20071;-75
2021/08/02 10:43:35;;;;;;;6.13;1.92;;;;;;;;;;4931146;29;20097;-77
2021/08/02 10:46:15;;;;;;;4.53;1.45;;;;;;;;;;4932019;28;20391;-75
2021/08/02 10:48:41;;;;;;;4.68;1.63;;;;;;;;;;4932202;28;20044;-78
2021/08/02 10:51:11;;;;;;;7.63;1.90;;;;;;;;;;4931645;28;20038;-81
2021/08/02 10:53:37;;;;;;;3.13;1.05;;;;;;;;;;4930112;28;20032;-83
2021/08/02 10:56:03;;;;;;;3.72;1.33;;;;;;;;;;4931700;29;20020;-81
2021/08/02 10:58:32;;;;;;;5.95;1.63;;;;;;;;;;4931599;29;20032;-77
2021/08/02 11:00:59;;;;;;;5.68;1.33;;;;;;;;;;4929634;28;20115;-78
2021/08/02 11:03:31;;;;;;;6.82;1.48;;;;;;;;;;4931048;29;20032;-79
2021/08/02 11:05:58;;;;;;;3.95;1.60;;;;;;;;;;4930493;29;20098;-80
2021/08/02 11:08:24;;;;;;;8.32;2.10;;;;;;;;;;4931551;28;20055;-75
2021/08/02 11:10:51;;;;;;;6.72;1.48;;;;;;;;;;4931575;29;20392;-81
2021/08/02 11:13:27;;;;;;;5.82;1.48;;;;;;;;;;4932048;29;20043;-84
2021/08/02 11:15:53;;;;;;;3.50;1.40;;;;;;;;;;4931614;29;20020;-76
2021/08/02 11:18:26;;;;;;;5.78;1.77;;;;;;;;;;4931110;28;20089;-84
2021/08/02 11:20:53;;;;;;;4.10;1.20;;;;;;;;;;4912577;28;20373;-85
2021/08/02 11:23:18;;;;;;;8.20;1.52;;;;;;;;;;4912207;29;20024;-83
2021/08/02 11:25:44;;;;;;;4.75;1.02;;;;;;;;;;4943430;29;20038;-79
2021/08/02 11:28:10;;;;;;;3.50;1.05;;;;;;;;;;4931576;29;20487;-77
2021/08/02 11:30:37;;;;;;;3.67;1.27;;;;;;;;;;4931030;28;20081;-80
2021/08/02 11:33:03;;;;;;;10.73;1.83;;;;;;;;;;4931191;28;20484;-76
2021/08/02 11:35:33;;;;;;;5.45;1.30;;;;;;;;;;4931037;29;20020;-82
2021/08/02 11:37:59;;;;;;;6.05;0.90;;;;;;;;;;4930311;29;20039;-79
2021/08/02 11:40:28;;;;;;;5.43;1.55;;;;;;;;;;4930801;29;20071;-80
2021/08/02 11:43:01;;;;;;;4.68;1.65;;;;;;;;;;4933019;29;20042;-76
2021/08/02 11:45:28;;;;;;;4.05;1.10;;;;;;;;;;4932557;29;20028;-77
2021/08/02 11:47:55;;;;;;;3.72;1.17;;;;;;;;;;4930489;28;20024;-78
2021/08/02 11:50:21;;;;;;;2.65;1.00;;;;;;;;;;4930624;29;20462;-76
2021/08/02 11:52:56;;;;;;;3.15;1.10;;;;;;;;;;4929689;29;20048;-76
2021/08/02 11:55:22;;;;;;;4.15;1.40;;;;;;;;;;4930017;29;20028;-77
2021/08/02 11:57:58;;;;;;;4.07;1.10;;;;;;;;;;4929409;28;20027;-80
2021/08/02 12:00:23;;;;;;;4.60;1.30;;;;;;;;;;4928581;29;20119;-76
2021/08/02 12:02:50;;;;;;;5.20;1.45;;;;;;;;;;4930808;29;20524;-77
2021/08/02 12:05:19;;;;;;;11.50;1.35;;;;;;;;;;4930629;29;20032;-77
2021/08/02 12:07:46;;;;;;;3.25;1.10;;;;;;;;;;4930605;29;20035;-78
2021/08/02 12:10:17;;;;;;;3.65;1.20;;;;;;;;;;4930709;29;20035;-81
2021/08/02 12:12:43;;;;;;;5.32;1.33;;;;;;;;;;4929367;28;20051;-84
2021/08/02 12:15:10;;;;;;;5.05;1.17;;;;;;;;;;4930832;29;20036;-76
2021/08/02 12:17:48;;;;;;;6.15;1.40;;;;;;;;;;4930584;29;20028;-82
2021/08/02 12:20:14;;;;;;;5.45;0.82;;;;;;;;;;4929939;29;20028;-76
2021/08/02 12:22:40;;;;;;;6.57;1.10;;;;;;;;;;4930859;29;20510;-87
2021/08/02 12:25:07;;;;;;;2.33;0.75;;;;;;;;;;4929419;29;20373;-81
2021/08/02 12:27:33;;;;;;;4.03;1.10;;;;;;;;;;4930770;29;20028;-84
2021/08/02 12:30:04;;;;;;;3.45;1.00;;;;;;;;;;4930993;29;20383;-87
2021/08/02 12:32:35;;;;;;;5.15;1.13;;;;;;;;;;4930590;29;20500;-79
2021/08/02 12:35:01;;;;;;;3.95;1.10;;;;;;;;;;4930538;29;20016;-79
2021/08/02 12:37:26;;;;;;;2.58;0.93;;;;;;;;;;4930179;29;20024;-77
2021/08/02 12:39:54;;;;;;;2.97;1.10;;;;;;;;;;4930650;29;20032;-72
2021/08/02 12:42:25;;;;;;;4.78;1.13;;;;;;;;;;4930479;28;20050;-73
2021/08/02 12:44:51;;;;;;;3.95;1.08;;;;;;;;;;4928442;29;20071;-75
2021/08/02 12:47:17;;;;;;;3.58;0.98;;;;;;;;;;4930220;29;20038;-79
2021/08/02 12:49:43;;;;;;;4.88;0.95;;;;;;;;;;4932785;29;20031;-72
2021/08/02 12:52:10;;;;;;;1.55;0.77;;;;;;;;;;4933529;29;20384;-76
2021/08/02 12:54:36;;;;;;;1.73;0.80;;;;;;;;;;4933284;29;20450;-74
2021/08/02 12:57:03;;;;;;;4.70;1.02;;;;;;;;;;4933477;28;20066;-78
2021/08/02 12:59:28;;;;;;;4.60;1.13;;;;;;;;;;4932534;29;20059;-75
2021/08/02 13:01:54;;;;;;;4.05;1.20;;;;;;;;;;4933518;29;20075;-74
2021/08/02 13:04:20;;;;;;;2.28;0.90;;;;;;;;;;4932943;29;20090;-76
2021/08/02 13:06:46;;;;;;;2.78;0.82;;;;;;;;;;4933000;29;20027;-76
2021/08/02 13:09:12;;;;;;;2.15;0.75;;;;;;;;;;4933741;28;20035;-77
2021/08/02 13:11:38;;;;;;;1.73;1.00;;;;;;;;;;4932038;29;20031;-76
2021/08/02 13:14:04;;;;;;;2.63;1.00;;;;;;;;;;4933278;29;20451;-84
2021/08/02 13:16:30;;;;;;;3.97;0.90;;;;;;;;;;4933186;29;20036;-80
2021/08/02 13:18:56;;;;;;;1.77;0.95;;;;;;;;;;4931607;28;20514;-77
2021/08/02 13:21:22;;;;;;;3.72;1.10;;;;;;;;;;4932708;29;20040;-82
2021/08/02 13:29:18;;;;;;;2.35;1.08;;;;;;;;;;4932586;29;20035;-74
2021/08/02 13:31:45;;;;;;;1.52;0.80;;;;;;;;;;4933189;29;20032;-74
2021/08/02 13:34:12;;;;;;;1.73;0.90;;;;;;;;;;4931790;29;20055;-71
2021/08/02 13:36:38;;;;;;;4.85;1.08;;;;;;;;;;4932756;28;20124;-71
2021/08/02 13:39:05;;;;;;;3.33;1.13;;;;;;;;;;4936946;29;20397;-72
2021/08/02 13:41:31;;;;;;;2.20;1.08;;;;;;;;;;4931842;29;20492;-72
2021/08/02 13:43:57;;;;;;;2.97;0.90;;;;;;;;;;4932268;29;20035;-72
2021/08/02 13:46:23;;;;;;;3.13;0.93;;;;;;;;;;4932444;29;20040;-71
2021/08/02 13:48:50;;;;;;;2.47;0.90;;;;;;;;;;4932196;28;20024;-72
2021/08/02 13:51:16;;;;;;;4.30;1.08;;;;;;;;;;4932258;28;20070;-86
2021/08/02 13:53:42;;;;;;;2.00;0.95;;;;;;;;;;4933153;29;20372;-73
2021/08/02 13:56:08;;;;;;;4.35;1.00;;;;;;;;;;4932253;28;20127;-87
2021/08/02 13:58:34;;;;;;;2.50;0.95;;;;;;;;;;4932222;29;20024;-86
2021/08/02 14:01:00;;;;;;;2.90;0.80;;;;;;;;;;4931421;29;20067;-86
2021/08/02 14:03:26;;;;;;;6.28;0.90;;;;;;;;;;4932452;29;20064;-86
2021/08/02 14:05:52;;;;;;;5.80;1.10;;;;;;;;;;4932288;29;20553;-85
2021/08/02 14:08:18;;;;;;;2.10;0.82;;;;;;;;;;4932177;29;20068;-79
2021/08/02 14:10:44;;;;;;;2.17;0.95;;;;;;;;;;4932764;29;20077;-83
2021/08/02 14:13:13;;;;;;;2.60;0.95;;;;;;;;;;4932680;29;20494;-85
2021/08/02 14:15:43;;;;;;;2.67;1.00;;;;;;;;;;4931560;28;20074;-86
2021/08/02 14:18:09;;;;;;;2.63;0.63;;;;;;;;;;4930849;29;20078;-86
2021/08/02 14:20:36;;;;;;;1.80;0.90;;;;;;;;;;4931623;28;20044;-86
2021/08/02 14:23:03;;;;;;;1.35;0.90;;;;;;;;;;4932145;29;20047;-85
2021/08/02 14:25:29;;;;;;;2.45;1.10;;;;;;;;;;4930417;28;20407;-83
2021/08/02 14:27:55;;;;;;;1.70;0.80;;;;;;;;;;4931821;29;20078;-83
2021/08/02 14:30:21;;;;;;;3.70;0.93;;;21.80;93.00;;;;;;4931916;29;20032;-78
2021/08/02 14:32:47;;;;;;;2.85;1.30;;;24.40;91.40;;;;;;4930750;28;20035;-81
2021/08/02 14:35:13;;;;;;;3.10;1.00;;;24.40;91.40;;;;;;4946949;29;20097;-78
2021/08/02 14:37:42;;;;;;;2.17;0.75;;;24.40;91.30;;;;;;4931984;29;20142;-81
2021/08/02 14:40:12;;;;;;;2.45;0.80;;;24.50;91.30;;;;;;4931650;29;20027;-73
2021/08/02 14:42:42;;;;;;;2.70;1.08;;;24.50;91.10;;;;;;4931714;28;20118;-78
2021/08/02 14:45:08;;;;;;;1.83;1.10;;;24.50;91.10;;;;;;4931944;28;20020;-72